Terminal Aerodrome Forecast
Issued by NWS Missoula, MT

Home | Current Version | Previous Version | Text Only | Print | Product List | Glossary On
Versions: 1 2 3 4 5 6 7 8 9 10 11 12 13 14 15 16 17 18
000
FTUS45 KMSO 230100 AAA
TAFBTM
TAF AMD
KBTM 230158Z 2302/2324 10010KT 2SM +RA BKN020
     FM230230 VRB06KT P6SM -SHRA SCT035 BKN050
     FM230400 10010KT P6SM -RA OVC040=

USA.gov is the U.S. government's official web portal to all federal, state and local government web resources and services.